Sunday, October 21, 2018, 10:14 PM EDT
Back to Local

KMPV, Knapp State Airport

Location: Barre, VT, United States Lat: 44.2
Local Time: 10:14 PM EDT ( 2:14 GMT) Lon: -72.567
Time Zone: US/Eastern Elev: 1164 ft

Show me the last for .
Show Decoded

2018-10-21 21:51 METAR KMPV 220151Z AUTO 31005G15KT 10SM OVC050 M01/M07 A3004 RMK AO2 SLP188
                 T10061067 =
2018-10-21 20:51 METAR KMPV 220051Z AUTO 31011KT 10SM SCT038 OVC048 00/M06 A3003 RMK AO2 SLP181
                 T00001061 =
2018-10-21 19:51 METAR KMPV 212351Z AUTO 32006KT 10SM BKN037 OVC047 00/M06 A3002 RMK AO2 SLP179
                 60000 T00001056 10011 21006 51022 =
2018-10-21 18:51 METAR KMPV 212251Z AUTO 30009G16KT 10SM SCT035 SCT044 OVC055 00/M05 A3000 RMK
                 AO2 SNE09 SLP173 P0000 T00001050 =
2018-10-21 17:51 METAR KMPV 212151Z AUTO 31010KT 10SM -SN FEW033 BKN045 OVC055 00/M04 A2998 RMK
                 AO2 SNB00E32B49 SLP166 P0000 T00001044 =
2018-10-21 16:51 METAR KMPV 212051Z AUTO 32008G22KT 280V360 10SM FEW034 BKN049 OVC055 01/M06
                 A2995 RMK AO2 PK WND 31027/2018 SNB20E29 SLP155 P0000 60000 T00061056 53012 =
2018-10-21 15:51 METAR KMPV 211951Z AUTO 32012G24KT 10SM BKN039 OVC046 01/M06 A2994 RMK AO2
                 SNE1858B20E35 SLP152 P0000 T00061061 =
2018-10-21 14:51 METAR KMPV 211851Z AUTO 30014G22KT 9SM -SN SCT035 OVC045 01/M06 A2992 RMK AO2
                 SNB45 SLP145 P0000 T00061056 =
2018-10-21 13:51 METAR KMPV 211751Z AUTO 31015G23KT 10SM BKN034 OVC042 00/M06 A2992 RMK AO2 PK
                 WND 30027/1709 SLP142 60000 T00001061 10006 20000 51009 =
2018-10-21 13:21 METAR KMPV 211721Z AUTO 32011G26KT 10SM SCT028 OVC036 00/M05 A2991 RMK AO2 PK
                 WND 30027/1709 T00001050 =
2018-10-21 13:04 METAR KMPV 211704Z AUTO 30014G21KT 10SM BKN028 OVC036 00/M05 A2991 RMK AO2
                 T00001050 =
2018-10-21 12:51 METAR KMPV 211651Z AUTO 31014G22KT 10SM SCT028 OVC039 00/M05 A2991 RMK AO2 PK
                 WND 31027/1629 SNB00E11 SLP140 P0000 T00001050 =
2018-10-21 11:51 METAR KMPV 211551Z AUTO 30009G17KT 10SM OVC033 01/M04 A2991 RMK AO2 SLP138
                 T00061044 =
2018-10-21 11:12 METAR KMPV 211512Z AUTO 32011G21KT 10SM OVC031 01/M05 A2989 RMK AO2 T00061050 =
2018-10-21 10:51 METAR KMPV 211451Z AUTO 30011G20KT 10SM OVC029 00/M04 A2989 RMK AO2 PK WND
                 31027/1352 SLP133 T00001044 51014 =
2018-10-21 09:51 METAR KMPV 211351Z AUTO 32015G25KT 10SM OVC028 01/M05 A2987 RMK AO2 PK WND
                 34027/1322 SLP127 T00061050 =
2018-10-21 09:49 METAR KMPV 211349Z AUTO 30011G25KT 10SM OVC028 01/M05 A2987 RMK AO2 PK WND
                 34027/1322 =
2018-10-21 08:51 METAR KMPV 211251Z AUTO 31013G18KT 10SM BKN030 OVC036 01/M04 A2985 RMK AO2
                 SLP117 T00061039 =
2018-10-21 08:06 METAR KMPV 211206Z AUTO 32009KT 10SM OVC031 01/M04 A2983 RMK AO2 T00061044 =
2018-10-21 07:51 METAR KMPV 211151Z AUTO 31015G24KT 10SM OVC029 01/M04 A2982 RMK AO2 SLP107
                 T00061044 10050 20006 53029 =
2018-10-21 06:51 METAR KMPV 211051Z AUTO 32011KT 10SM OVC023 01/M03 A2978 RMK AO2 SLP091
                 T00111028 =
2018-10-21 05:51 METAR KMPV 210951Z AUTO 32012G18KT 10SM OVC024 01/M03 A2975 RMK AO2 SLP083
                 T00111028 =
2018-10-21 05:02 METAR KMPV 210902Z AUTO 32010G19KT 10SM OVC028 02/M02 A2973 RMK AO2 T00171022 =
2018-10-21 04:51 METAR KMPV 210851Z AUTO 31008G16KT 10SM OVC030 02/M02 A2973 RMK AO2 SLP075
                 T00221022 51015 =
2018-10-21 04:49 METAR KMPV 210849Z AUTO 31008G16KT 10SM OVC030 02/M02 A2973 RMK AO2 =
2018-10-21 04:03 METAR KMPV 210803Z AUTO 32006KT 10SM BKN027 03/M02 A2971 RMK AO2 T00281017 =
2018-10-21 03:51 METAR KMPV 210751Z AUTO 31007KT 10SM SCT027 03/M02 A2970 RMK AO2 SLP064
                 T00281017 =
2018-10-21 02:51 METAR KMPV 210651Z AUTO 32011KT 10SM CLR 04/M02 A2969 RMK AO2 SLP059 T00391022 =
2018-10-21 01:51 METAR KMPV 210551Z AUTO 33010KT 10SM OVC050 05/M01 A2967 RMK AO2 SLP051
                 T00501011 10100 20050 53013 =
2018-10-21 00:51 METAR KMPV 210451Z AUTO 33008KT 10SM SCT055 06/M01 A2965 RMK AO2 SLP046
                 T00561011 401440050 =
2018-10-20 23:51 METAR KMPV 210351Z AUTO 31007KT 10SM FEW043 06/M01 A2964 RMK AO2 SLP042
                 T00561011 =
2018-10-20 22:51 METAR KMPV 210251Z AUTO 06003KT 10SM BKN041 06/01 A2963 RMK AO2 SLP039 T00560011
                 53013 =

Support USWX by starting your Amazon purchase here.